createdAt,value
2023-02-26T00:01:28.774Z,-3275.60
2023-02-26T00:03:58.664Z,-3275.70
2023-02-26T00:06:27.462Z,-3275.60
2023-02-26T00:08:54.930Z,-3275.70
2023-02-26T00:11:22.457Z,-3275.60
2023-02-26T00:13:49.578Z,-3275.60
2023-02-26T00:16:34.735Z,-3275.60
2023-02-26T00:19:05.209Z,-3275.50
2023-02-26T00:21:33.326Z,-3275.60
2023-02-26T00:24:03.129Z,-3275.50
2023-02-26T00:26:31.867Z,-3275.50
2023-02-26T00:28:59.152Z,-3275.50
2023-02-26T00:31:26.720Z,-3275.50
2023-02-26T00:33:55.615Z,-3275.60
2023-02-26T00:36:24.246Z,-3275.60
2023-02-26T00:39:15.879Z,-3275.60
2023-02-26T00:41:42.863Z,-3275.50
2023-02-26T00:44:09.864Z,-3275.60
2023-02-26T00:47:05.705Z,-3275.50
2023-02-26T00:49:49.805Z,-3275.60
2023-02-26T00:52:31.305Z,-3275.50
2023-02-26T00:54:58.121Z,-3275.50
2023-02-26T00:57:24.836Z,-3275.50
2023-02-26T00:59:51.573Z,-3275.50
2023-02-26T01:02:18.418Z,-3275.50
2023-02-26T01:04:46.699Z,-3275.50
2023-02-26T01:07:14.389Z,-3275.40
2023-02-26T01:09:41.348Z,-3275.40
2023-02-26T01:12:12.895Z,-3275.40
2023-02-26T01:14:40.644Z,-3275.40
2023-02-26T01:17:27.844Z,-3275.40
2023-02-26T01:19:59.852Z,-3275.40
2023-02-26T01:23:04.994Z,-3275.40
2023-02-26T01:25:54.723Z,-3275.30
2023-02-26T01:28:23.959Z,-3275.30
2023-02-26T01:30:54.169Z,-3275.30
2023-02-26T01:33:43.355Z,-3275.30
2023-02-26T01:36:21.025Z,-3275.30
2023-02-26T01:39:14.601Z,-3275.30
2023-02-26T01:41:48.226Z,-3275.30
2023-02-26T01:44:26.611Z,-3275.20
2023-02-26T01:47:12.233Z,-3275.30
2023-02-26T01:49:39.568Z,-3275.20
2023-02-26T01:52:27.530Z,-3275.20
2023-02-26T01:54:54.300Z,-3275.20
2023-02-26T01:57:21.936Z,-3275.20
2023-02-26T01:59:51.559Z,-3275.10
2023-02-26T02:02:25.020Z,-3275.10
2023-02-26T02:04:52.592Z,-3275.10
2023-02-26T02:07:19.438Z,-3275.10
2023-02-26T02:09:47.501Z,-3275.10
2023-02-26T02:12:49.882Z,-3275.00
2023-02-26T02:15:38.031Z,-3275.00
2023-02-26T02:18:26.123Z,-3274.90
2023-02-26T02:21:10.277Z,-3275.00
2023-02-26T02:23:47.667Z,-3275.00
2023-02-26T02:26:29.509Z,-3275.00
2023-02-26T02:29:18.406Z,-3275.00
2023-02-26T02:32:00.675Z,-3275.00
2023-02-26T02:34:34.362Z,-3275.00
2023-02-26T02:37:26.073Z,-3274.90
2023-02-26T02:40:04.355Z,-3274.90
2023-02-26T02:42:44.551Z,-3274.90
2023-02-26T02:45:25.495Z,-3274.90
2023-02-26T02:48:05.338Z,-3274.80
2023-02-26T02:50:50.040Z,-3274.80
2023-02-26T02:53:19.525Z,-3274.90
2023-02-26T02:55:58.737Z,-3274.80
2023-02-26T02:58:30.628Z,-3274.80
2023-02-26T03:01:04.789Z,-3274.80
2023-02-26T03:04:02.112Z,-3274.80
2023-02-26T03:06:29.005Z,-3274.80
2023-02-26T03:08:56.346Z,-3274.70
2023-02-26T03:11:23.175Z,-3274.80
2023-02-26T03:13:52.837Z,-3274.80
2023-02-26T03:16:47.141Z,-3274.70
2023-02-26T03:19:29.754Z,-3274.70
2023-02-26T03:21:59.491Z,-3274.70
2023-02-26T03:24:51.181Z,-3274.70
2023-02-26T03:27:29.525Z,-3274.70
2023-02-26T03:30:16.755Z,-3274.60
2023-02-26T03:33:26.520Z,-3274.70
2023-02-26T03:36:18.282Z,-3274.70
2023-02-26T03:39:02.734Z,-3274.60
2023-02-26T03:41:39.656Z,-3274.60
2023-02-26T03:44:13.494Z,-3274.60
2023-02-26T03:46:53.943Z,-3274.60
2023-02-26T03:49:28.510Z,-3274.60
2023-02-26T03:51:56.970Z,-3274.50
2023-02-26T03:54:39.107Z,-3274.60
2023-02-26T03:57:05.934Z,-3274.60
2023-02-26T03:59:34.837Z,-3274.60
2023-02-26T04:02:06.528Z,-3274.60
2023-02-26T04:04:36.081Z,-3274.60
2023-02-26T04:07:03.503Z,-3274.60
2023-02-26T04:09:30.310Z,-3274.60
2023-02-26T04:11:58.346Z,-3274.60
2023-02-26T04:14:25.583Z,-3274.50
2023-02-26T04:16:52.720Z,-3274.60
2023-02-26T04:19:19.459Z,-3274.60
2023-02-26T04:21:46.457Z,-3274.60
2023-02-26T04:24:13.200Z,-3274.60
2023-02-26T04:26:39.940Z,-3274.50
2023-02-26T04:29:06.691Z,-3274.60
2023-02-26T04:31:33.718Z,-3274.60
2023-02-26T04:34:00.529Z,-3274.60
2023-02-26T04:36:27.622Z,-3274.60
2023-02-26T04:38:54.603Z,-3274.50
2023-02-26T04:41:21.690Z,-3274.50
2023-02-26T04:43:48.787Z,-3274.50
2023-02-26T04:46:15.636Z,-3274.50
2023-02-26T04:48:42.561Z,-3274.60
2023-02-26T04:51:09.376Z,-3274.60
2023-02-26T04:53:36.337Z,-3274.60
2023-02-26T04:56:03.082Z,-3274.60
2023-02-26T04:58:29.817Z,-3274.60
2023-02-26T05:00:57.474Z,-3274.60
2023-02-26T05:03:24.488Z,-3274.60
2023-02-26T05:05:51.419Z,-3274.50
2023-02-26T05:08:18.296Z,-3274.60
2023-02-26T05:10:45.926Z,-3274.60
2023-02-26T05:13:13.283Z,-3274.50
2023-02-26T05:15:40.089Z,-3274.50
2023-02-26T05:18:06.835Z,-3274.50
2023-02-26T05:20:33.699Z,-3274.40
2023-02-26T05:23:00.603Z,-3274.40
2023-02-26T05:25:27.395Z,-3274.40
2023-02-26T05:27:54.187Z,-3274.40
2023-02-26T05:30:21.019Z,-3274.40
2023-02-26T05:32:48.040Z,-3274.30
2023-02-26T05:35:15.039Z,-3274.30
2023-02-26T05:37:41.853Z,-3274.30
2023-02-26T05:40:10.849Z,-3274.30
2023-02-26T05:42:38.972Z,-3274.20
2023-02-26T05:45:06.906Z,-3274.30
2023-02-26T05:47:34.687Z,-3274.20
2023-02-26T05:50:01.738Z,-3274.30
2023-02-26T05:52:28.870Z,-3274.20
2023-02-26T05:54:56.096Z,-3274.20
2023-02-26T05:57:23.732Z,-3274.10
2023-02-26T05:59:51.563Z,-3274.10
2023-02-26T06:02:18.503Z,-3274.20
2023-02-26T06:04:45.305Z,-3274.20
2023-02-26T06:07:12.134Z,-3274.20
2023-02-26T06:09:39.279Z,-3274.20
2023-02-26T06:12:06.717Z,-3274.20
2023-02-26T06:14:34.406Z,-3274.20
2023-02-26T06:17:01.420Z,-3274.20
2023-02-26T06:19:28.187Z,-3274.30
2023-02-26T06:21:55.074Z,-3274.20
2023-02-26T06:24:21.915Z,-3274.20
2023-02-26T06:26:48.842Z,-3274.30
2023-02-26T06:29:15.700Z,-3274.30
2023-02-26T06:31:42.503Z,-3274.30
2023-02-26T06:34:09.308Z,-3274.40
2023-02-26T06:36:36.129Z,-3274.40
2023-02-26T06:39:03.729Z,-3274.40
2023-02-26T06:41:30.567Z,-3274.50
2023-02-26T06:43:57.342Z,-3274.50
2023-02-26T06:46:24.370Z,-3274.50
2023-02-26T06:48:51.275Z,-3274.60
2023-02-26T06:51:18.404Z,-3274.60
2023-02-26T06:53:45.147Z,-3274.60
2023-02-26T06:56:11.937Z,-3274.70
2023-02-26T06:58:38.695Z,-3274.70
2023-02-26T07:01:05.528Z,-3274.80
2023-02-26T07:03:32.344Z,-3274.70
2023-02-26T07:06:06.409Z,-3274.80
2023-02-26T07:08:40.917Z,-3274.90
2023-02-26T07:11:08.813Z,-3275.00
2023-02-26T07:13:37.473Z,-3275.00
2023-02-26T07:16:07.526Z,-3275.10
2023-02-26T07:18:35.514Z,-3275.20
2023-02-26T07:21:02.622Z,-3275.20
2023-02-26T07:23:29.444Z,-3275.30
2023-02-26T07:25:56.533Z,-3275.40
2023-02-26T07:28:24.286Z,-3275.30
2023-02-26T07:30:51.221Z,-3275.40
2023-02-26T07:33:18.060Z,-3275.40
2023-02-26T07:35:44.782Z,-3275.40
2023-02-26T07:38:11.540Z,-3275.40
2023-02-26T07:40:38.326Z,-3275.40
2023-02-26T07:43:05.226Z,-3275.40
2023-02-26T07:45:31.957Z,-3275.50
2023-02-26T07:47:58.707Z,-3275.50
2023-02-26T07:50:25.628Z,-3275.60
2023-02-26T07:52:53.503Z,-3275.70
2023-02-26T07:55:20.872Z,-3275.70
2023-02-26T07:57:47.927Z,-3275.70
2023-02-26T08:00:15.722Z,-3275.80
2023-02-26T08:02:42.585Z,-3275.80
2023-02-26T08:05:09.549Z,-3275.90
2023-02-26T08:07:37.515Z,-3275.90
2023-02-26T08:10:04.848Z,-3275.90
2023-02-26T08:12:33.019Z,-3275.90
2023-02-26T08:14:59.898Z,-3275.90
2023-02-26T08:17:26.680Z,-3275.90
2023-02-26T08:19:53.730Z,-3275.90
2023-02-26T08:22:21.208Z,-3275.90
2023-02-26T08:24:47.946Z,-3275.90
2023-02-26T08:27:14.702Z,-3276.10
2023-02-26T08:29:42.882Z,-3276.30
2023-02-26T08:32:09.832Z,-3276.50
2023-02-26T08:34:37.243Z,-3276.70
2023-02-26T08:37:04.048Z,0.00
2023-02-26T08:39:33.973Z,0.00
2023-02-26T08:42:00.809Z,-3276.70
2023-02-26T08:44:27.530Z,-3276.70
2023-02-26T08:46:54.315Z,-3276.70
2023-02-26T08:49:21.147Z,0.00
2023-02-26T08:51:47.883Z,0.10
2023-02-26T08:54:15.206Z,0.30
2023-02-26T08:56:41.961Z,0.30
2023-02-26T08:59:10.110Z,0.20
2023-02-26T09:01:37.033Z,0.20
2023-02-26T09:04:03.885Z,0.10
2023-02-26T09:06:30.723Z,0.10
2023-02-26T09:08:57.471Z,0.30
2023-02-26T09:11:24.533Z,0.60
2023-02-26T09:13:51.456Z,0.80
2023-02-26T09:16:18.241Z,0.80
2023-02-26T09:18:45.081Z,1.00
2023-02-26T09:21:11.819Z,1.10
2023-02-26T09:23:38.556Z,1.30
2023-02-26T09:26:05.767Z,1.60
2023-02-26T09:28:32.533Z,1.70
2023-02-26T09:30:59.311Z,1.50
2023-02-26T09:33:26.180Z,1.30
2023-02-26T09:35:53.377Z,1.30
2023-02-26T09:38:20.603Z,1.40
2023-02-26T09:41:07.107Z,1.40
2023-02-26T09:43:52.132Z,1.20
2023-02-26T09:46:53.030Z,1.30
2023-02-26T09:49:22.768Z,1.40
2023-02-26T09:52:00.453Z,1.30
2023-02-26T09:54:33.975Z,1.50
2023-02-26T09:57:01.405Z,1.70
2023-02-26T09:59:32.879Z,1.70
2023-02-26T10:02:21.785Z,1.80
2023-02-26T10:05:19.767Z,1.40
2023-02-26T10:07:50.714Z,1.80
2023-02-26T10:10:35.406Z,2.00
2023-02-26T10:13:02.677Z,2.00
2023-02-26T10:15:42.506Z,1.80
2023-02-26T10:18:29.676Z,1.90
2023-02-26T10:21:17.215Z,2.00
2023-02-26T10:23:50.638Z,2.40
2023-02-26T10:26:17.688Z,2.60
2023-02-26T10:29:05.010Z,2.60
2023-02-26T10:31:52.275Z,2.30
2023-02-26T10:34:52.715Z,2.00
2023-02-26T10:37:40.751Z,1.90
2023-02-26T10:40:43.652Z,1.60
2023-02-26T10:43:13.494Z,1.20
2023-02-26T10:45:50.527Z,1.10
2023-02-26T10:48:45.156Z,1.10
2023-02-26T10:51:18.354Z,0.90
2023-02-26T10:53:50.722Z,0.80
2023-02-26T10:56:22.497Z,1.00
2023-02-26T10:58:50.998Z,1.10
2023-02-26T11:01:20.841Z,1.10
2023-02-26T11:03:54.660Z,1.10
2023-02-26T11:06:28.383Z,1.10
2023-02-26T11:08:57.344Z,0.90
2023-02-26T11:11:40.785Z,0.90
2023-02-26T11:14:08.610Z,1.30
2023-02-26T11:16:41.297Z,1.90
2023-02-26T11:19:08.946Z,2.00
2023-02-26T11:21:40.470Z,2.00
2023-02-26T11:24:25.442Z,2.10
2023-02-26T11:26:55.110Z,2.10
2023-02-26T11:29:23.180Z,2.60
2023-02-26T11:31:58.295Z,3.10
2023-02-26T11:34:26.094Z,3.90
2023-02-26T11:36:57.115Z,3.90
2023-02-26T11:39:35.535Z,4.50
2023-02-26T11:42:03.953Z,4.80
2023-02-26T11:44:46.002Z,4.00
2023-02-26T11:47:25.587Z,4.10
2023-02-26T11:50:04.547Z,3.90
2023-02-26T11:52:43.173Z,4.70
2023-02-26T11:55:51.386Z,5.30
2023-02-26T11:58:24.289Z,5.30
2023-02-26T12:00:57.984Z,4.00
2023-02-26T12:03:31.284Z,4.20
2023-02-26T12:06:01.181Z,3.70
2023-02-26T12:08:30.884Z,3.70
2023-02-26T12:11:06.086Z,3.20
2023-02-26T12:14:01.203Z,3.20
2023-02-26T12:16:43.122Z,3.70
2023-02-26T12:19:28.130Z,3.30
2023-02-26T12:22:06.833Z,3.40
2023-02-26T12:24:39.516Z,3.70
2023-02-26T12:27:30.151Z,3.70
2023-02-26T12:30:21.863Z,2.80
2023-02-26T12:33:03.047Z,1.20
2023-02-26T12:35:48.526Z,0.60
2023-02-26T12:38:27.956Z,0.40
2023-02-26T12:41:19.097Z,0.40
2023-02-26T12:43:55.177Z,0.50
2023-02-26T12:46:43.384Z,0.50
2023-02-26T12:49:23.565Z,1.80
2023-02-26T12:52:29.000Z,3.70
2023-02-26T12:55:19.170Z,4.80
2023-02-26T12:57:50.741Z,5.40
2023-02-26T13:00:31.564Z,5.80
2023-02-26T13:03:01.062Z,6.00
2023-02-26T13:05:55.573Z,5.10
2023-02-26T13:08:40.383Z,4.90
2023-02-26T13:11:30.532Z,4.60
2023-02-26T13:14:22.315Z,6.10
2023-02-26T13:17:04.095Z,6.80
2023-02-26T13:19:31.195Z,4.00
2023-02-26T13:22:14.626Z,2.90
2023-02-26T13:24:47.379Z,1.90
2023-02-26T13:27:15.613Z,1.50
2023-02-26T13:29:48.385Z,1.70
2023-02-26T13:32:35.241Z,2.20
2023-02-26T13:35:07.614Z,2.50
2023-02-26T13:37:40.007Z,3.10
2023-02-26T13:40:28.602Z,3.50
2023-02-26T13:43:33.002Z,3.80
2023-02-26T13:46:16.460Z,4.10
2023-02-26T13:49:12.004Z,4.40
2023-02-26T13:51:42.882Z,5.70
2023-02-26T13:54:45.399Z,6.80
2023-02-26T13:57:36.308Z,8.60
2023-02-26T14:00:33.327Z,10.80
2023-02-26T14:03:30.114Z,11.00
2023-02-26T14:06:26.466Z,8.80
2023-02-26T14:08:58.382Z,7.00
2023-02-26T14:11:37.519Z,4.30
2023-02-26T14:14:12.228Z,3.20
2023-02-26T14:16:46.877Z,2.50
2023-02-26T14:19:13.641Z,2.40
2023-02-26T14:22:18.674Z,2.10
2023-02-26T14:24:58.195Z,2.10
2023-02-26T14:27:34.848Z,2.10
2023-02-26T14:30:14.854Z,2.00
2023-02-26T14:33:00.346Z,2.30
2023-02-26T14:35:35.091Z,4.50
2023-02-26T14:38:03.629Z,5.90
2023-02-26T14:40:53.692Z,7.30
2023-02-26T14:43:34.997Z,7.10
2023-02-26T14:46:04.001Z,4.50
2023-02-26T14:48:32.893Z,2.10
2023-02-26T14:51:32.575Z,0.80
2023-02-26T14:54:20.357Z,0.30
2023-02-26T14:57:12.776Z,-3276.70
2023-02-26T14:59:50.894Z,-3276.70
2023-02-26T15:02:21.266Z,0.00
2023-02-26T15:05:12.976Z,0.00
2023-02-26T15:07:58.324Z,0.10
2023-02-26T15:11:05.724Z,0.30
2023-02-26T15:14:05.575Z,0.50
2023-02-26T15:17:00.260Z,0.60
2023-02-26T15:19:33.843Z,0.70
2023-02-26T15:22:00.560Z,0.80
2023-02-26T15:24:29.815Z,0.80
2023-02-26T15:27:02.844Z,0.60
2023-02-26T15:29:33.951Z,0.50
2023-02-26T15:32:13.804Z,0.60
2023-02-26T15:34:47.986Z,0.60
2023-02-26T15:37:22.469Z,0.70
2023-02-26T15:39:51.087Z,0.80
2023-02-26T15:42:21.029Z,0.70
2023-02-26T15:44:56.718Z,0.80
2023-02-26T15:47:24.006Z,0.80
2023-02-26T15:49:50.987Z,0.60
2023-02-26T15:52:22.216Z,0.60
2023-02-26T15:55:17.124Z,0.50
2023-02-26T15:57:44.081Z,0.40
2023-02-26T16:00:16.803Z,0.60
2023-02-26T16:02:45.585Z,0.50
2023-02-26T16:05:16.602Z,0.40
2023-02-26T16:07:43.357Z,0.20
2023-02-26T16:10:47.641Z,0.10
2023-02-26T16:13:25.109Z,0.00
2023-02-26T16:15:51.993Z,0.00
2023-02-26T16:18:24.149Z,0.00
2023-02-26T16:20:58.116Z,0.00
2023-02-26T16:23:31.608Z,-3276.70
2023-02-26T16:26:04.677Z,-3276.70
2023-02-26T16:28:37.747Z,-3276.70
2023-02-26T16:31:06.024Z,-3276.60
2023-02-26T16:33:34.603Z,-3276.70
2023-02-26T16:36:12.847Z,-3276.70
2023-02-26T16:38:49.711Z,-3276.60
2023-02-26T16:41:17.091Z,-3276.50
2023-02-26T16:43:47.662Z,-3276.50
2023-02-26T16:46:19.563Z,-3276.40
2023-02-26T16:48:56.097Z,-3276.40
2023-02-26T16:51:25.659Z,-3276.40
2023-02-26T16:54:07.452Z,-3276.40
2023-02-26T16:56:41.845Z,-3276.40
2023-02-26T16:59:20.109Z,-3276.40
2023-02-26T17:02:02.944Z,-3276.40
2023-02-26T17:04:34.069Z,-3276.40
2023-02-26T17:07:02.195Z,-3276.40
2023-02-26T17:09:37.353Z,-3276.30
2023-02-26T17:12:05.990Z,-3276.30
2023-02-26T17:14:40.510Z,-3276.30
2023-02-26T17:17:07.559Z,-3276.30
2023-02-26T17:19:34.377Z,-3276.30
2023-02-26T17:22:01.514Z,-3276.30
2023-02-26T17:24:36.840Z,-3276.20
2023-02-26T17:27:05.349Z,-3276.20
2023-02-26T17:29:34.217Z,-3276.30
2023-02-26T17:32:01.066Z,-3276.30
2023-02-26T17:34:27.958Z,-3276.30
2023-02-26T17:36:56.892Z,-3276.30
2023-02-26T17:39:23.651Z,-3276.30
2023-02-26T17:41:50.836Z,-3276.20
2023-02-26T17:44:17.944Z,-3276.30
2023-02-26T17:46:45.558Z,-3276.20
2023-02-26T17:49:12.801Z,-3276.10
2023-02-26T17:51:39.628Z,-3276.10
2023-02-26T17:54:06.442Z,-3276.10
2023-02-26T17:56:35.137Z,-3276.10
2023-02-26T17:59:02.349Z,-3276.10
2023-02-26T18:01:30.009Z,-3276.10
2023-02-26T18:03:57.742Z,-3276.10
2023-02-26T18:06:25.305Z,-3276.10
2023-02-26T18:08:52.326Z,-3276.10
2023-02-26T18:11:20.399Z,-3276.10
2023-02-26T18:13:47.612Z,-3276.10
2023-02-26T18:16:20.812Z,-3276.20
2023-02-26T18:18:49.292Z,-3276.20
2023-02-26T18:21:16.459Z,-3276.20
2023-02-26T18:23:43.756Z,-3276.10
2023-02-26T18:26:11.653Z,-3276.10
2023-02-26T18:28:38.827Z,-3276.00
2023-02-26T18:31:09.113Z,-3275.90
2023-02-26T18:33:38.557Z,-3275.80
2023-02-26T18:36:06.373Z,-3275.80
2023-02-26T18:38:33.385Z,-3275.70
2023-02-26T18:41:02.138Z,-3275.70
2023-02-26T18:43:29.932Z,-3275.70
2023-02-26T18:46:01.144Z,-3275.70
2023-02-26T18:48:28.297Z,-3275.80
2023-02-26T18:51:00.499Z,-3275.80
2023-02-26T18:53:27.734Z,-3275.80
2023-02-26T18:55:55.167Z,-3275.90
2023-02-26T18:58:22.115Z,-3275.90
2023-02-26T19:00:49.336Z,-3276.00
2023-02-26T19:03:16.203Z,-3276.00
2023-02-26T19:05:43.162Z,-3276.00
2023-02-26T19:08:11.336Z,-3276.00
2023-02-26T19:10:39.001Z,-3276.10
2023-02-26T19:13:06.148Z,-3276.10
2023-02-26T19:15:34.180Z,-3276.10
2023-02-26T19:18:00.981Z,-3276.10
2023-02-26T19:20:27.899Z,-3276.10
2023-02-26T19:22:54.831Z,-3276.00
2023-02-26T19:25:24.227Z,-3276.10
2023-02-26T19:27:54.342Z,-3276.10
2023-02-26T19:30:22.964Z,-3276.00
2023-02-26T19:32:50.626Z,-3275.90
2023-02-26T19:35:18.226Z,-3275.90
2023-02-26T19:37:45.797Z,-3275.90
2023-02-26T19:40:16.741Z,-3275.80
2023-02-26T19:42:44.076Z,-3275.70
2023-02-26T19:45:11.637Z,-3275.70
2023-02-26T19:47:38.703Z,-3275.70
2023-02-26T19:50:06.528Z,-3275.70
2023-02-26T19:52:36.760Z,-3275.70
2023-02-26T19:55:06.138Z,-3275.70
2023-02-26T19:57:33.106Z,-3275.70
2023-02-26T19:59:59.987Z,-3275.70
2023-02-26T20:02:27.320Z,-3275.70
2023-02-26T20:04:54.176Z,-3275.70
2023-02-26T20:07:21.028Z,-3275.70
2023-02-26T20:09:49.450Z,-3275.70
2023-02-26T20:12:17.266Z,-3275.70
2023-02-26T20:14:44.154Z,-3275.70
2023-02-26T20:17:11.046Z,-3275.70
2023-02-26T20:19:39.174Z,-3275.60
2023-02-26T20:22:05.944Z,-3275.60
2023-02-26T20:24:33.486Z,-3275.60
2023-02-26T20:27:00.252Z,-3275.50
2023-02-26T20:29:27.470Z,-3275.60
2023-02-26T20:31:54.930Z,-3275.60
2023-02-26T20:34:21.963Z,-3275.70
2023-02-26T20:36:49.963Z,-3275.70
2023-02-26T20:39:19.311Z,-3275.80
2023-02-26T20:41:46.074Z,-3275.90
2023-02-26T20:44:13.131Z,-3275.90
2023-02-26T20:46:39.978Z,-3276.00
2023-02-26T20:49:11.613Z,-3275.90
2023-02-26T20:51:40.340Z,-3276.00
2023-02-26T20:54:08.063Z,-3276.00
2023-02-26T20:56:35.328Z,-3276.00
2023-02-26T20:59:02.572Z,-3276.00
2023-02-26T21:01:35.481Z,-3275.90
2023-02-26T21:04:04.243Z,-3275.90
2023-02-26T21:06:32.341Z,-3275.90
2023-02-26T21:09:00.364Z,-3275.90
2023-02-26T21:11:31.804Z,-3275.80
2023-02-26T21:14:02.379Z,-3275.80
2023-02-26T21:16:29.575Z,-3275.80
2023-02-26T21:18:57.772Z,-3275.80
2023-02-26T21:21:24.620Z,-3275.80
2023-02-26T21:23:53.032Z,-3275.70
2023-02-26T21:26:20.416Z,-3275.70
2023-02-26T21:28:50.824Z,-3275.70
2023-02-26T21:31:19.859Z,-3275.70
2023-02-26T21:33:46.663Z,-3275.70
2023-02-26T21:36:14.421Z,-3275.70
2023-02-26T21:38:42.353Z,-3275.70
2023-02-26T21:41:09.237Z,-3275.70
2023-02-26T21:43:36.680Z,-3275.70
2023-02-26T21:46:04.726Z,-3275.70
2023-02-26T21:48:31.688Z,-3275.80
2023-02-26T21:50:59.708Z,-3275.80
2023-02-26T21:53:27.477Z,-3275.90
2023-02-26T21:55:54.826Z,-3275.80
2023-02-26T21:58:21.580Z,-3275.90
2023-02-26T22:00:48.474Z,-3275.90
2023-02-26T22:03:15.447Z,-3275.90
2023-02-26T22:05:42.287Z,-3276.00
2023-02-26T22:08:09.386Z,-3275.90
2023-02-26T22:10:36.208Z,-3275.90
2023-02-26T22:13:03.025Z,-3275.90
2023-02-26T22:15:30.600Z,-3275.90
2023-02-26T22:17:58.239Z,-3276.00
2023-02-26T22:20:25.002Z,-3275.90
2023-02-26T22:22:51.876Z,-3275.90
2023-02-26T22:25:18.726Z,-3275.90
2023-02-26T22:27:45.489Z,-3275.90
2023-02-26T22:30:12.670Z,-3275.90
2023-02-26T22:32:39.746Z,-3275.90
2023-02-26T22:35:06.958Z,-3275.90
2023-02-26T22:37:33.740Z,-3275.90
2023-02-26T22:40:00.467Z,-3276.00
2023-02-26T22:42:27.282Z,-3275.90
2023-02-26T22:44:54.044Z,-3276.00
2023-02-26T22:47:21.087Z,-3276.00
2023-02-26T22:49:47.883Z,-3276.10
2023-02-26T22:52:15.000Z,-3276.10
2023-02-26T22:54:41.806Z,-3276.20
2023-02-26T22:57:08.675Z,-3276.10
2023-02-26T22:59:35.481Z,-3276.20
2023-02-26T23:02:02.243Z,-3276.20
2023-02-26T23:04:29.207Z,-3276.20
2023-02-26T23:06:55.993Z,-3276.20
2023-02-26T23:09:22.916Z,-3276.20
2023-02-26T23:11:49.890Z,-3276.20
2023-02-26T23:14:17.008Z,-3276.20
2023-02-26T23:16:44.413Z,-3276.20
2023-02-26T23:19:11.732Z,-3276.20
2023-02-26T23:21:38.507Z,-3276.20
2023-02-26T23:24:05.317Z,-3276.10
2023-02-26T23:26:32.179Z,-3276.10
2023-02-26T23:28:58.921Z,-3276.30
2023-02-26T23:31:26.267Z,-3276.30
2023-02-26T23:33:53.268Z,-3276.20
2023-02-26T23:36:19.998Z,-3276.30
2023-02-26T23:38:46.814Z,-3276.20
2023-02-26T23:41:13.764Z,-3276.20
2023-02-26T23:43:40.486Z,-3276.20
2023-02-26T23:46:07.346Z,-3276.30
2023-02-26T23:48:34.149Z,-3276.30
2023-02-26T23:51:00.882Z,-3276.20
2023-02-26T23:53:27.691Z,-3276.20
2023-02-26T23:55:58.610Z,-3276.20
2023-02-26T23:58:27.164Z,-3276.20
